^^
Datos históricos de la estación: Murcia-Puente Tocinos
Diario Informe para Junio 3, 2019 Unidades:  Métrico    Ingés   Ambas
Diario Semanal Mensual Anual
  Máxima: Mínima: Promedio:
Temperatura: 14.2 °C 5.6 °C 9.3 °C
Punto de rocio: 8.1 °C 1.8 °C 5.2 °C
Humedad: 90% 55.2% 76%
Velocidad viento: 10.3km/h 0km/h 5.5km/h
Racha viento: 20.9km/h - -
Viento- - SSE
Presión: 1029.9 hPa 1025.9 hPa -
Precipitación: 0.0 mm    
 
 
Tabla de datos para Junio 3, 2019
Hora Temperatura Punto de rocio Presión Viento Velocidad viento Racha viento Humedad Intensidad lluvia(por hora) Nubes
00:04 9.4 °C 7 °C 1026.1 hPa SSO 7.6 km/h 12.9 km/h 85% 0.0 mm
00:09 9.4 °C 7 °C 1025.9 hPa Sur 7.2 km/h 11.1 km/h 85% 0.0 mm
00:14 9.3 °C 7 °C 1025.9 hPa SSO 6.9 km/h 12.2 km/h 85.6% 0.0 mm
00:19 9.3 °C 7.1 °C 1026.0 hPa SSO 7.3 km/h 13 km/h 86% 0.0 mm
00:24 9.3 °C 7 °C 1026.0 hPa Sur 7.6 km/h 11.3 km/h 86% 0.0 mm
00:29 9.2 °C 7 °C 1026.0 hPa SSO 6.5 km/h 9.5 km/h 86% 0.0 mm
00:34 9.2 °C 7 °C 1026.2 hPa SSO 5.8 km/h 9.7 km/h 86% 0.0 mm
00:39 9.2 °C 7 °C 1026.2 hPa SSO 5.8 km/h 9.7 km/h 86% 0.0 mm
00:44 9.3 °C 7 °C 1026.2 hPa SSO 5.8 km/h 8 km/h 86% 0.0 mm
00:49 9.2 °C 6.8 °C 1026.4 hPa SSO 4.7 km/h 8 km/h 85% 0.0 mm
00:54 9 °C 6.3 °C 1026.4 hPa SSO 3.9 km/h 8 km/h 83.2% 0.0 mm
00:59 8.6 °C 6 °C 1026.4 hPa SSE 4.4 km/h 8.4 km/h 83.9% 0.0 mm
01:04 8.2 °C 5.7 °C 1026.4 hPa SSE 4.6 km/h 9.5 km/h 84.5% 0.0 mm
01:09 7.9 °C 5.7 °C 1026.3 hPa Sur 5.7 km/h 9.7 km/h 85.8% 0.0 mm
01:14 7.8 °C 5.7 °C 1026.3 hPa SSO 6.5 km/h 10 km/h 86.7% 0.0 mm
01:19 7.9 °C 6 °C 1026.3 hPa SO 6.7 km/h 10.3 km/h 87.9% 0.0 mm
01:24 8.2 °C 6.3 °C 1026.3 hPa SO 6.9 km/h 13.7 km/h 88.2% 0.0 mm
01:29 8.4 °C 6.4 °C 1026.3 hPa SO 7.8 km/h 14.5 km/h 87.5% 0.0 mm
01:34 8.6 °C 6.5 °C 1026.3 hPa SO 8.4 km/h 11.3 km/h 86.6% 0.0 mm
01:39 8.6 °C 6.4 °C 1026.3 hPa SO 7.2 km/h 9.7 km/h 86% 0.0 mm
01:44 8.7 °C 6.4 °C 1026.3 hPa SSO 6.5 km/h 9.7 km/h 85.4% 0.0 mm
01:49 8.7 °C 6.3 °C 1026.3 hPa SSO 6.5 km/h 10 km/h 85% 0.0 mm
01:54 8.6 °C 6.2 °C 1026.3 hPa SSO 6.5 km/h 10 km/h 85% 0.0 mm
01:59 8.6 °C 6.2 °C 1026.3 hPa Sur 6.8 km/h 9.7 km/h 85% 0.0 mm
02:04 8.6 °C 6.2 °C 1026.4 hPa Sur 6.9 km/h 9.7 km/h 85% 0.0 mm
02:09 8.4 °C 6 °C 1026.4 hPa Sur 6.6 km/h 9.7 km/h 85% 0.0 mm
02:14 8.3 °C 6 °C 1026.4 hPa Sur 6.5 km/h 9.7 km/h 85% 0.0 mm
02:19 8.2 °C 5.9 °C 1026.7 hPa Sur 5.6 km/h 8 km/h 85% 0.0 mm
02:24 8.1 °C 5.7 °C 1026.7 hPa Sur 5 km/h 8 km/h 85% 0.0 mm
02:29 7.9 °C 5.6 °C 1026.7 hPa Sur 3.9 km/h 7.4 km/h 85.6% 0.0 mm
02:34 7.8 °C 5.6 °C 1026.7 hPa Sur 3.2 km/h 8 km/h 86% 0.0 mm
02:39 7.7 °C 5.7 °C 1026.7 hPa SSO 4.3 km/h 8 km/h 86.7% 0.0 mm
02:44 7.7 °C 5.7 °C 1026.7 hPa SSO 5 km/h 8 km/h 87% 0.0 mm
02:49 7.7 °C 5.6 °C 1026.7 hPa Sur 5 km/h 8 km/h 86.6% 0.0 mm
02:54 7.5 °C 5.3 °C 1026.7 hPa SSE 5 km/h 8 km/h 86.2% 0.0 mm
02:59 7.3 °C 5.1 °C 1026.7 hPa SSE 5 km/h 8 km/h 86.3% 0.0 mm
03:04 7.1 °C 5.1 °C 1026.8 hPa SE 5 km/h 8 km/h 87% 0.0 mm
03:09 6.9 °C 4.9 °C 1026.8 hPa SSE 5 km/h 8.4 km/h 87% 0.0 mm
03:14 6.8 °C 4.8 °C 1026.8 hPa SSE 5 km/h 8.7 km/h 87.4% 0.0 mm
03:19 6.7 °C 4.8 °C 1026.8 hPa Sur 5.5 km/h 8.7 km/h 88% 0.0 mm
03:24 6.6 °C 4.8 °C 1026.8 hPa SSE 5.8 km/h 11.1 km/h 88.3% 0.0 mm
03:29 6.5 °C 4.8 °C 1026.8 hPa SSE 6.4 km/h 11.3 km/h 89% 0.0 mm
03:34 6.4 °C 4.7 °C 1026.8 hPa SSE 6.9 km/h 11.3 km/h 89% 0.0 mm
03:39 6.4 °C 4.7 °C 1026.8 hPa Sur 6.9 km/h 11.1 km/h 89% 0.0 mm
03:44 6.3 °C 4.6 °C 1026.8 hPa Sur 6.9 km/h 11.9 km/h 89% 0.0 mm
03:49 6.3 °C 4.7 °C 1026.9 hPa Sur 6.9 km/h 11.3 km/h 89.3% 0.0 mm
03:54 6.3 °C 4.8 °C 1026.9 hPa Sur 6.9 km/h 10 km/h 90% 0.0 mm
03:59 6.3 °C 4.8 °C 1026.9 hPa SSO 6.9 km/h 11.9 km/h 90% 0.0 mm
04:04 6.3 °C 4.8 °C 1026.9 hPa Sur 6.9 km/h 12.2 km/h 90% 0.0 mm
04:09 6.3 °C 4.8 °C 1026.8 hPa Sur 6.9 km/h 12.9 km/h 90% 0.0 mm
04:14 6.3 °C 4.8 °C 1026.8 hPa SSO 6.9 km/h 11.9 km/h 89.8% 0.0 mm
04:19 6.4 °C 4.7 °C 1026.8 hPa Sur 7.3 km/h 13 km/h 89% 0.0 mm
04:24 6.4 °C 4.7 °C 1026.7 hPa SSO 7.6 km/h 14.8 km/h 89% 0.0 mm
04:29 6.4 °C 4.7 °C 1026.7 hPa SSO 8.2 km/h 14.5 km/h 89% 0.0 mm
04:34 6.4 °C 4.6 °C 1026.7 hPa Sur 8.7 km/h 12.9 km/h 88% 0.0 mm
04:39 6.4 °C 4.6 °C 1026.6 hPa SSO 8 km/h 13 km/h 88% 0.0 mm
04:44 6.4 °C 4.5 °C 1026.6 hPa SSO 7.6 km/h 13 km/h 87.5% 0.0 mm
04:49 6.4 °C 4.4 °C 1026.6 hPa Sur 8.1 km/h 13 km/h 87% 0.0 mm
04:54 6.4 °C 4.4 °C 1026.5 hPa SSO 8.4 km/h 14.8 km/h 87% 0.0 mm
04:59 6.4 °C 4.3 °C 1026.5 hPa SSO 9.1 km/h 14.5 km/h 86.3% 0.0 mm
05:04 6.4 °C 4.1 °C 1026.5 hPa SSO 9.5 km/h 14.5 km/h 85.4% 0.0 mm
05:09 6.4 °C 4 °C 1026.5 hPa SSO 9.5 km/h 14 km/h 84.8% 0.0 mm
05:14 6.5 °C 4 °C 1026.5 hPa SSO 9.5 km/h 17.2 km/h 84% 0.0 mm
05:19 6.6 °C 3.9 °C 1026.5 hPa SSO 10 km/h 17.7 km/h 83% 0.0 mm
05:24 6.6 °C 3.8 °C 1026.4 hPa SSO 10.3 km/h 13 km/h 82.2% 0.0 mm
05:29 6.6 °C 3.6 °C 1026.4 hPa SSO 9.8 km/h 15.6 km/h 81.1% 0.0 mm
05:34 6.5 °C 3.4 °C 1026.5 hPa SSO 9.5 km/h 16.1 km/h 80.7% 0.0 mm
05:39 6.4 °C 3.2 °C 1026.5 hPa SSO 9.5 km/h 14.5 km/h 80% 0.0 mm
05:44 6.3 °C 3.1 °C 1026.5 hPa Sur 9.5 km/h 12.2 km/h 80% 0.0 mm
05:49 6.3 °C 3.1 °C 1026.7 hPa Sur 8.8 km/h 13.7 km/h 80% 0.0 mm
05:54 6.2 °C 3 °C 1026.7 hPa SSO 8.4 km/h 14.8 km/h 80% 0.0 mm
05:59 6.1 °C 2.9 °C 1026.7 hPa SSO 9.1 km/h 14.5 km/h 80% 0.0 mm
06:04 6.1 °C 2.9 °C 1026.9 hPa SSO 9.5 km/h 13 km/h 80% 0.0 mm
06:09 6 °C 2.8 °C 1026.9 hPa SSO 9 km/h 14.8 km/h 80% 0.0 mm
06:14 5.9 °C 2.7 °C 1026.9 hPa SSO 8.7 km/h 14.5 km/h 80% 0.0 mm
06:19 5.8 °C 2.6 °C 1027.0 hPa SSO 9.5 km/h 14.8 km/h 80% 0.0 mm
06:24 5.8 °C 2.6 °C 1027.0 hPa SSO 10 km/h 16.4 km/h 80% 0.0 mm
06:29 5.8 °C 2.6 °C 1027.0 hPa SSO 10.2 km/h 16.7 km/h 80.1% 0.0 mm
06:34 5.8 °C 2.7 °C 1027.0 hPa SSO 10.3 km/h 16.1 km/h 81% 0.0 mm
06:39 5.7 °C 2.7 °C 1027.0 hPa SSO 10.3 km/h 16.1 km/h 81% 0.0 mm
06:44 5.7 °C 2.8 °C 1027.0 hPa Sur 10.3 km/h 16.1 km/h 81.5% 0.0 mm
06:49 5.6 °C 2.8 °C 1027.1 hPa SSO 10.1 km/h 16.7 km/h 82% 0.0 mm
06:54 5.6 °C 2.8 °C 1027.1 hPa SSO 10 km/h 16.7 km/h 82% 0.0 mm
06:59 5.6 °C 2.8 °C 1027.1 hPa Sur 10.2 km/h 16.7 km/h 82% 0.0 mm
07:04 5.6 °C 2.8 °C 1027.1 hPa SSO 10.3 km/h 18.5 km/h 82% 0.0 mm
07:09 5.6 °C 2.8 °C 1027.1 hPa SSE 10.1 km/h 19.3 km/h 81.9% 0.0 mm
07:14 5.7 °C 2.6 °C 1027.1 hPa SSO 10 km/h 16.7 km/h 80.9% 0.0 mm
07:19 5.7 °C 2.5 °C 1027.3 hPa SSO 9.2 km/h 16.1 km/h 79.7% 0.0 mm
07:24 5.7 °C 2.4 °C 1027.3 hPa Sur 8.7 km/h 17.2 km/h 79% 0.0 mm
07:29 5.8 °C 2.4 °C 1027.3 hPa SSO 9.5 km/h 17.7 km/h 78.7% 0.0 mm
07:34 5.8 °C 2.3 °C 1027.3 hPa SSO 10 km/h 16.1 km/h 78% 0.0 mm
07:39 5.7 °C 2.2 °C 1027.3 hPa SSO 9.2 km/h 15.6 km/h 78% 0.0 mm
07:44 5.8 °C 2.1 °C 1027.3 hPa SO 8.7 km/h 18.3 km/h 77.3% 0.0 mm
07:49 5.9 °C 2 °C 1027.5 hPa OSO 9.2 km/h 19.3 km/h 76% 0.0 mm
07:54 6 °C 2 °C 1027.5 hPa OSO 9.5 km/h 19.3 km/h 75.6% 0.0 mm
07:59 6.1 °C 2 °C 1027.5 hPa SSO 8.2 km/h 20.4 km/h 74.8% 0.0 mm
08:04 6.2 °C 1.9 °C 1027.6 hPa SSO 7.6 km/h 20.9 km/h 74% 0.0 mm
08:09 6.2 °C 1.9 °C 1027.6 hPa SSO 8.1 km/h 16.1 km/h 74% 0.0 mm
08:14 6.2 °C 1.9 °C 1027.6 hPa Sur 8.4 km/h 14.5 km/h 74% 0.0 mm
08:19 6.1 °C 1.9 °C 1027.9 hPa SSO 7.9 km/h 13 km/h 74.6% 0.0 mm
08:24 5.9 °C 1.8 °C 1027.9 hPa Sur 7.6 km/h 13 km/h 75.1% 0.0 mm
08:29 5.9 °C 2 °C 1027.9 hPa Sur 7.2 km/h 11.3 km/h 76% 0.0 mm
08:34 5.9 °C 2 °C 1028.0 hPa Sur 6.9 km/h 11.9 km/h 76% 0.0 mm
08:39 5.9 °C 2 °C 1028.0 hPa Sur 6.9 km/h 11.3 km/h 76% 0.0 mm
08:44 6 °C 2.1 °C 1028.0 hPa Sur 6.9 km/h 11.1 km/h 76% 0.0 mm
08:49 5.9 °C 2 °C 1028.3 hPa Sur 6.9 km/h 11.3 km/h 76% 0.0 mm
08:54 5.8 °C 2 °C 1028.3 hPa Sur 6.9 km/h 11.3 km/h 76.8% 0.0 mm
08:59 5.7 °C 2 °C 1028.3 hPa SSO 6.9 km/h 10 km/h 77% 0.0 mm
09:04 5.7 °C 2.1 °C 1028.5 hPa SSE 6.9 km/h 10 km/h 77.4% 0.0 mm
09:09 5.7 °C 2.1 °C 1028.5 hPa Sur 6.6 km/h 9.7 km/h 77.7% 0.0 mm
09:14 5.8 °C 2.2 °C 1028.5 hPa Sur 6.5 km/h 11.1 km/h 78% 0.0 mm
09:19 5.8 °C 2.2 °C 1028.8 hPa Sur 6.8 km/h 11.3 km/h 77.6% 0.0 mm
09:24 5.9 °C 2.3 °C 1028.8 hPa SSO 6.9 km/h 9.7 km/h 77.4% 0.0 mm
09:29 6.1 °C 2.4 °C 1028.8 hPa Sur 6.3 km/h 9.5 km/h 77% 0.0 mm
09:34 6.3 °C 2.4 °C 1028.9 hPa SSO 5.8 km/h 10 km/h 76% 0.0 mm
09:39 6.4 °C 2.4 °C 1028.9 hPa Sur 6.2 km/h 10 km/h 75.6% 0.0 mm
09:44 6.5 °C 2.4 °C 1028.9 hPa SSO 6.5 km/h 10.3 km/h 75% 0.0 mm
09:49 6.6 °C 2.5 °C 1029.1 hPa SSO 7.1 km/h 13 km/h 75% 0.0 mm
09:54 6.6 °C 2.4 °C 1029.1 hPa SSO 7.6 km/h 12.9 km/h 74.6% 0.0 mm
09:59 6.7 °C 2.4 °C 1029.1 hPa Sur 7.6 km/h 11.3 km/h 73.8% 0.0 mm
10:04 6.7 °C 2.2 °C 1029.2 hPa SSO 7.6 km/h 13 km/h 73% 0.0 mm
10:09 6.8 °C 2.3 °C 1029.2 hPa SSO 8.1 km/h 13.7 km/h 73% 0.0 mm
10:14 7 °C 2.4 °C 1029.2 hPa SSO 8.4 km/h 14.5 km/h 72.7% 0.0 mm
10:19 7.2 °C 2.4 °C 1029.4 hPa SSO 7.2 km/h 11.1 km/h 71.5% 0.0 mm
10:24 7.3 °C 2.3 °C 1029.4 hPa SSO 6.5 km/h 11.9 km/h 70.6% 0.0 mm
10:29 7.6 °C 2.5 °C 1029.4 hPa Sur 6.7 km/h 11.3 km/h 70% 0.0 mm
10:34 7.8 °C 2.4 °C 1029.6 hPa SSO 6.9 km/h 11.3 km/h 68.8% 0.0 mm
10:39 7.9 °C 2.3 °C 1029.6 hPa SSO 6.7 km/h 11.3 km/h 68% 0.0 mm
10:44 8 °C 2.5 °C 1029.6 hPa SSO 6.5 km/h 12.2 km/h 68% 0.0 mm
10:49 8.2 °C 2.8 °C 1029.6 hPa SSO 7.1 km/h 13 km/h 68.8% 0.0 mm
10:54 8.3 °C 2.9 °C 1029.6 hPa SSO 7.6 km/h 11.3 km/h 69% 0.0 mm
10:59 8.5 °C 3.1 °C 1029.6 hPa Sur 7.6 km/h 12.2 km/h 69% 0.0 mm
11:04 8.6 °C 2.9 °C 1029.6 hPa SSO 7.6 km/h 13.7 km/h 67.5% 0.0 mm
11:09 8.7 °C 2.7 °C 1029.6 hPa SSO 8 km/h 14.5 km/h 66.3% 0.0 mm
11:14 8.7 °C 2.7 °C 1029.6 hPa SSO 8.4 km/h 9.7 km/h 66% 0.0 mm
11:19 8.8 °C 2.7 °C 1029.9 hPa SSO 6.2 km/h 11.1 km/h 65.2% 0.0 mm
11:24 9 °C 2.7 °C 1029.9 hPa SSO 4.7 km/h 11.3 km/h 64.9% 0.0 mm
11:29 9.3 °C 2.9 °C 1029.9 hPa SSO 5.7 km/h 11.3 km/h 64.6% 0.0 mm
11:34 9.6 °C 3.1 °C 1029.9 hPa Sur 6.5 km/h 13 km/h 64% 0.0 mm
11:39 9.9 °C 3.2 °C 1029.6 hPa SSO 7.1 km/h 13 km/h 63% 0.0 mm
11:44 10 °C 3.3 °C 1029.6 hPa SSO 7.6 km/h 12.9 km/h 63% 0.0 mm
11:49 10.1 °C 3.4 °C 1029.6 hPa SSO 7.6 km/h 11.9 km/h 63% 0.0 mm
11:54 10.2 °C 3.3 °C 1029.4 hPa SSO 7.6 km/h 11.3 km/h 62.3% 0.0 mm
11:59 10.3 °C 3.3 °C 1029.4 hPa SO 8.1 km/h 13.7 km/h 61.9% 0.0 mm
12:04 10.3 °C 3.3 °C 1029.4 hPa SSO 8.4 km/h 14.5 km/h 62% 0.0 mm
12:09 10.3 °C 3.3 °C 1029.3 hPa SSO 7.5 km/h 14 km/h 62% 0.0 mm
12:14 10.4 °C 3.5 °C 1029.3 hPa SSO 6.9 km/h 14.8 km/h 62% 0.0 mm
12:19 10.7 °C 3.6 °C 1029.3 hPa SSO 6.9 km/h 11.3 km/h 61.5% 0.0 mm
12:24 11.1 °C 3.5 °C 1029.0 hPa SO 6.9 km/h 11.3 km/h 59.7% 0.0 mm
12:29 11.3 °C 3.6 °C 1029.0 hPa Sur 6.9 km/h 13 km/h 59.1% 0.0 mm
12:34 11.4 °C 3.6 °C 1029.0 hPa SSO 6.9 km/h 13 km/h 58.3% 0.0 mm
12:39 11.6 °C 3.8 °C 1028.8 hPa Sur 7.3 km/h 13 km/h 58.5% 0.0 mm
12:44 11.8 °C 3.7 °C 1028.8 hPa Sur 7.6 km/h 12.9 km/h 57.8% 0.0 mm
12:49 11.9 °C 3.7 °C 1028.8 hPa Sur 7.6 km/h 11.3 km/h 57.3% 0.0 mm
12:54 12 °C 3.8 °C 1028.6 hPa Sur 7.6 km/h 13.7 km/h 57.4% 0.0 mm
12:59 12.1 °C 3.8 °C 1028.6 hPa Sur 7.1 km/h 14.5 km/h 56.8% 0.0 mm
13:04 12.3 °C 4 °C 1028.6 hPa Sur 6.9 km/h 9.7 km/h 56.8% 0.0 mm
13:09 12.4 °C 4 °C 1028.3 hPa Sur 6.3 km/h 10 km/h 56.5% 0.0 mm
13:14 12.6 °C 4 °C 1028.3 hPa Sur 5.8 km/h 9.7 km/h 55.7% 0.0 mm
13:19 12.7 °C 4.1 °C 1028.3 hPa SSO 5.3 km/h 9.7 km/h 55.8% 0.0 mm
13:24 12.8 °C 4.3 °C 1028.0 hPa Sur 5 km/h 9.7 km/h 56% 0.0 mm
13:29 13 °C 4.2 °C 1028.0 hPa Sur 5.8 km/h 11.9 km/h 55.2% 0.0 mm
13:34 13 °C 4.3 °C 1028.0 hPa SSE 6.5 km/h 11.3 km/h 55.3% 0.0 mm
13:39 12.9 °C 4.4 °C 1027.9 hPa SSO 7.1 km/h 11.3 km/h 56.1% 0.0 mm
13:44 12.9 °C 4.4 °C 1027.9 hPa SSO 7.6 km/h 11.3 km/h 56.2% 0.0 mm
13:49 13 °C 4.6 °C 1027.9 hPa SSE 6.9 km/h 11.3 km/h 56.9% 0.0 mm
13:54 13.1 °C 4.6 °C 1027.8 hPa SE 6.5 km/h 11.1 km/h 56.5% 0.0 mm
13:59 13.2 °C 4.8 °C 1027.8 hPa SSE 6.5 km/h 11.3 km/h 57% 0.0 mm
14:04 13.1 °C 4.9 °C 1027.8 hPa SE 6.5 km/h 11.3 km/h 57.7% 0.0 mm
14:09 13.1 °C 5 °C 1027.6 hPa SSE 6.5 km/h 10 km/h 58% 0.0 mm
14:14 13 °C 5 °C 1027.6 hPa SE 6.5 km/h 11.1 km/h 58.6% 0.0 mm
14:19 13 °C 5.2 °C 1027.6 hPa SE 6.5 km/h 11.3 km/h 59% 0.0 mm
14:24 13.1 °C 5.4 °C 1027.5 hPa SE 6.5 km/h 9.7 km/h 59.8% 0.0 mm
14:29 13.1 °C 5.5 °C 1027.5 hPa SE 6.1 km/h 9.7 km/h 60% 0.0 mm
14:34 13.1 °C 5.5 °C 1027.5 hPa SE 5.8 km/h 9.7 km/h 60% 0.0 mm
14:39 13.2 °C 5.8 °C 1027.3 hPa SE 4.7 km/h 9.7 km/h 60.9% 0.0 mm
14:44 13.2 °C 5.9 °C 1027.3 hPa SE 3.9 km/h 8 km/h 61% 0.0 mm
14:49 13.3 °C 5.9 °C 1027.4 hPa SSE 3.9 km/h 8 km/h 61% 0.0 mm
14:54 13.3 °C 5.9 °C 1027.4 hPa SSE 3.9 km/h 8.4 km/h 61% 0.0 mm
14:59 13.2 °C 5.8 °C 1027.4 hPa SSE 4.6 km/h 9.3 km/h 61.1% 0.0 mm
15:04 13.1 °C 6 °C 1027.4 hPa SSE 5 km/h 9.7 km/h 62% 0.0 mm
15:09 13.2 °C 6.1 °C 1027.4 hPa SSE 3.7 km/h 8 km/h 62% 0.0 mm
15:14 13.3 °C 6.1 °C 1027.4 hPa SSE 2.9 km/h   61.7% 0.0 mm
15:19 13.3 °C 6.1 °C 1027.4 hPa SSE 1.2 km/h 7.4 km/h 61.8% 0.0 mm
15:24 13.4 °C 6.3 °C 1027.4 hPa Calm   8 km/h 62% 0.0 mm
15:29 13.4 °C 6.3 °C 1027.4 hPa ENE 1.7 km/h 8 km/h 62% 0.0 mm
15:34 13.4 °C 6.3 °C 1027.4 hPa ENE 2.9 km/h 8 km/h 62% 0.0 mm
15:39 13.6 °C 6.4 °C 1027.3 hPa ENE 1.2 km/h 7.4 km/h 62% 0.0 mm
15:44 13.6 °C 6.4 °C 1027.3 hPa Calm   8 km/h 62% 0.0 mm
15:49 13.6 °C 6.5 °C 1027.3 hPa ENE 1.9 km/h 7.6 km/h 62.5% 0.0 mm
15:54 13.6 °C 6.7 °C 1027.3 hPa Este 3.2 km/h 8.4 km/h 63% 0.0 mm
15:59 13.6 °C 6.7 °C 1027.3 hPa Este 4.2 km/h 8 km/h 63% 0.0 mm
16:04 13.7 °C 6.8 °C 1027.3 hPa Este 4.6 km/h 5.8 km/h 63% 0.0 mm
16:09 13.7 °C 6.8 °C 1027.3 hPa Este 3.6 km/h 7.4 km/h 63% 0.0 mm
16:14 13.7 °C 6.9 °C 1027.3 hPa ENE 2.9 km/h 8 km/h 63.5% 0.0 mm
16:19 13.8 °C 7.1 °C 1027.3 hPa ENE 2.5 km/h 7.6 km/h 64% 0.0 mm
16:24 13.9 °C 7.2 °C 1027.3 hPa ENE 2.2 km/h 8 km/h 64% 0.0 mm
16:29 14 °C 7.4 °C 1027.3 hPa ENE 0.9 km/h 9.5 km/h 64.3% 0.0 mm
16:34 14.1 °C 7.6 °C 1027.3 hPa Calm   10.3 km/h 64.9% 0.0 mm
16:39 14.2 °C 7.7 °C 1027.3 hPa North 3.8 km/h 11.3 km/h 65% 0.0 mm
16:44 14.2 °C 7.7 °C 1027.3 hPa NNE 6.5 km/h 9.7 km/h 65% 0.0 mm
16:49 14.2 °C 7.7 °C 1027.4 hPa ENE 5.4 km/h 8 km/h 65% 0.0 mm
16:54 14.2 °C 7.7 °C 1027.4 hPa NE 4.7 km/h 8 km/h 65% 0.0 mm
16:59 14.2 °C 7.7 °C 1027.4 hPa NE 4.1 km/h 8 km/h 65% 0.0 mm
17:04 14.1 °C 7.7 °C 1027.4 hPa NE 3.9 km/h 8.4 km/h 65.4% 0.0 mm
17:09 14.1 °C 7.8 °C 1027.4 hPa NNE 3.9 km/h 8 km/h 66% 0.0 mm
17:14 14 °C 7.8 °C 1027.4 hPa NE 3.9 km/h 9.5 km/h 66.2% 0.0 mm
17:19 13.9 °C 7.9 °C 1027.4 hPa NE 4.3 km/h 9.7 km/h 67% 0.0 mm
17:24 13.9 °C 7.9 °C 1027.3 hPa NE 4.7 km/h 8 km/h 67% 0.0 mm
17:29 13.8 °C 7.8 °C 1027.3 hPa NE 3.6 km/h 5.6 km/h 67% 0.0 mm
17:34 13.8 °C 8 °C 1027.4 hPa NE 2.9 km/h 7.4 km/h 68% 0.0 mm
17:39 13.7 °C 7.8 °C 1027.4 hPa NE 3.5 km/h 8 km/h 68% 0.0 mm
17:44 13.6 °C 7.8 °C 1027.4 hPa NE 3.9 km/h 8 km/h 68.1% 0.0 mm
17:49 13.4 °C 7.9 °C 1027.4 hPa NE 3.9 km/h 6.4 km/h 69% 0.0 mm
17:54 13.4 °C 7.8 °C 1027.4 hPa NE 3.9 km/h 6.4 km/h 69% 0.0 mm
17:59 13.3 °C 7.8 °C 1027.4 hPa NE 3.4 km/h 7.4 km/h 69.4% 0.0 mm
18:04 13.3 °C 7.9 °C 1027.5 hPa NE 3.2 km/h 8 km/h 70% 0.0 mm
18:09 13.2 °C 7.8 °C 1027.5 hPa ENE 4.1 km/h 8 km/h 70% 0.0 mm
18:14 13.1 °C 7.9 °C 1027.5 hPa ESE 4.7 km/h 8 km/h 70.8% 0.0 mm
18:19 12.9 °C 7.8 °C 1027.6 hPa ESE 3.8 km/h 6.4 km/h 71.3% 0.0 mm
18:24 12.8 °C 7.9 °C 1027.6 hPa ESE 3.2 km/h 6.4 km/h 72% 0.0 mm
18:29 12.8 °C 7.9 °C 1027.6 hPa ESE 2.6 km/h 4.8 km/h 72% 0.0 mm
18:34 12.7 °C 7.8 °C 1027.7 hPa ESE 2.2 km/h 3.2 km/h 72% 0.0 mm
18:39 12.7 °C 7.8 °C 1027.7 hPa ESE 0.9 km/h   72.5% 0.0 mm
18:44 12.6 °C 7.9 °C 1027.7 hPa Calm   3.9 km/h 73% 0.0 mm
18:49 12.5 °C 7.7 °C 1027.8 hPa ESE 1.4 km/h 7.4 km/h 73% 0.0 mm
18:54 12.3 °C 7.6 °C 1027.8 hPa ESE 2.2 km/h 8 km/h 73% 0.0 mm
18:59 12.2 °C 7.6 °C 1027.8 hPa ESE 2.7 km/h 6.4 km/h 73.4% 0.0 mm
19:04 12.1 °C 7.6 °C 1027.9 hPa ESE 2.9 km/h   74% 0.0 mm
19:09 11.9 °C 7.5 °C 1027.9 hPa ESE 1.2 km/h   74.3% 0.0 mm
19:14 11.8 °C 7.5 °C 1027.9 hPa Calm     75% 0.0 mm
19:19 11.7 °C 7.6 °C 1027.9 hPa Calm   2.3 km/h 76.4% 0.0 mm
19:24 11.5 °C 7.6 °C 1027.9 hPa Calm   4.7 km/h 76.8% 0.0 mm
19:29 11.3 °C 7.6 °C 1027.9 hPa ESE 1.3 km/h 4.8 km/h 78% 0.0 mm
19:34 11.3 °C 7.8 °C 1028.0 hPa ESE 2.2 km/h 5.6 km/h 79.1% 0.0 mm
19:39 11.2 °C 7.9 °C 1028.0 hPa ESE 2.6 km/h 5.8 km/h 80.2% 0.0 mm
19:44 11.1 °C 7.9 °C 1028.0 hPa ESE 2.9 km/h 6.4 km/h 81% 0.0 mm
19:49 11.1 °C 8.1 °C 1028.1 hPa ESE 3.1 km/h 8 km/h 81.9% 0.0 mm
19:54 11.1 °C 8.1 °C 1028.1 hPa ESE 3.2 km/h 11.9 km/h 82% 0.0 mm
19:59 10.9 °C 7.9 °C 1028.1 hPa ESE 5 km/h 11.3 km/h 82% 0.0 mm
20:04 10.7 °C 7.9 °C 1028.1 hPa ESE 5.8 km/h 11.3 km/h 82.9% 0.0 mm
20:09 10.6 °C 7.9 °C 1028.1 hPa ESE 4.6 km/h 8 km/h 83.2% 0.0 mm
20:14 10.5 °C 7.9 °C 1028.1 hPa Este 3.9 km/h 8.4 km/h 84% 0.0 mm
20:19 10.4 °C 8 °C 1028.1 hPa Este 4.3 km/h 8.4 km/h 85% 0.0 mm
20:24 10.4 °C 8 °C 1028.1 hPa Este 4.7 km/h 8 km/h 85% 0.0 mm
20:29 10.4 °C 8 °C 1028.1 hPa ESE 4.2 km/h 8 km/h 85% 0.0 mm
20:34 10.3 °C 7.9 °C 1028.1 hPa ESE 3.9 km/h 7.4 km/h 85% 0.0 mm
20:39 10.3 °C 7.9 °C 1028.1 hPa ESE 3.5 km/h 8 km/h 85% 0.0 mm
20:44 10.2 °C 7.8 °C 1028.1 hPa ESE 3.2 km/h 8 km/h 85% 0.0 mm
20:49 10.1 °C 7.7 °C 1028.1 hPa ESE 3.6 km/h 8.4 km/h 85% 0.0 mm
20:54 10 °C 7.6 °C 1028.1 hPa ESE 3.9 km/h 8 km/h 85% 0.0 mm
20:59 9.8 °C 7.6 °C 1028.1 hPa ESE 3.4 km/h 5.8 km/h 85.9% 0.0 mm
21:04 9.8 °C 7.5 °C 1028.1 hPa ESE 3.2 km/h 6.4 km/h 86% 0.0 mm
21:09 9.7 °C 7.4 °C 1028.1 hPa ESE 2.6 km/h 5.6 km/h 86% 0.0 mm
21:14 9.6 °C 7.4 °C 1028.1 hPa ESE 2.2 km/h 3.2 km/h 86% 0.0 mm
21:19 9.4 °C 7.2 °C 1028.2 hPa ESE 1 km/h   86% 0.0 mm
21:24 9.3 °C 7.1 °C 1028.2 hPa Calm     86% 0.0 mm
21:29 9.3 °C 7.2 °C 1028.2 hPa Calm     86.7% 0.0 mm
21:34 9.2 °C 7.1 °C 1028.2 hPa Calm     87% 0.0 mm
21:39 9.1 °C 7 °C 1028.2 hPa Calm     87% 0.0 mm
21:44 9 °C 7 °C 1028.2 hPa Calm     87.2% 0.0 mm
21:49 8.9 °C 7 °C 1028.3 hPa Calm     88% 0.0 mm
21:54 8.9 °C 6.9 °C 1028.3 hPa Calm   4.7 km/h 87.3% 0.0 mm
21:59 8.7 °C 6.7 °C 1028.3 hPa SE 1.4 km/h 7.6 km/h 87% 0.0 mm
22:04 8.6 °C 6.5 °C 1028.3 hPa SSE 2.2 km/h 9.3 km/h 87% 0.0 mm
22:09 8.5 °C 6.4 °C 1028.3 hPa SSE 3.7 km/h 9.7 km/h 87% 0.0 mm
22:14 8.4 °C 6.3 °C 1028.3 hPa SSE 4.6 km/h 6.4 km/h 87% 0.0 mm
22:19 8.4 °C 6.3 °C 1028.3 hPa SSE 3.6 km/h 5.6 km/h 87% 0.0 mm
22:24 8.4 °C 6.3 °C 1028.3 hPa SSE 2.9 km/h 8.4 km/h 87% 0.0 mm
22:29 8.5 °C 6.4 °C 1028.3 hPa SSE 2.9 km/h 8 km/h 87% 0.0 mm
22:34 8.5 °C 6.4 °C 1028.3 hPa SSE 2.9 km/h 7.4 km/h 87% 0.0 mm
22:39 8.6 °C 6.6 °C 1028.2 hPa SSE 2.5 km/h 8 km/h 87% 0.0 mm
22:44 8.6 °C 6.4 °C 1028.2 hPa SSE 2.2 km/h 3.2 km/h 86.2% 0.0 mm
22:49 8.6 °C 6.4 °C 1028.2 hPa SSE 0.9 km/h   86% 0.0 mm
22:54 8.5 °C 6.3 °C 1028.2 hPa Calm     86% 0.0 mm
22:59 8.4 °C 6.2 °C 1028.2 hPa Calm     86% 0.0 mm
23:04 8.3 °C 6.1 °C 1028.3 hPa Calm     86% 0.0 mm
23:09 8.2 °C 6 °C 1028.3 hPa Calm     86% 0.0 mm
23:14 8.1 °C 5.9 °C 1028.3 hPa Calm     86% 0.0 mm
23:19 8 °C 5.8 °C 1028.4 hPa Calm     86.2% 0.0 mm
23:24 7.9 °C 5.9 °C 1028.4 hPa Calm   4.7 km/h 87.1% 0.0 mm
23:29 7.9 °C 6.1 °C 1028.4 hPa Calm   4.8 km/h 88% 0.0 mm
23:34 7.9 °C 6.1 °C 1028.4 hPa Calm   4.7 km/h 88% 0.0 mm
23:39 7.9 °C 6 °C 1028.3 hPa SE 1.4 km/h 7.4 km/h 88% 0.0 mm
23:44 7.8 °C 5.9 °C 1028.3 hPa SE 2.2 km/h 8 km/h 88% 0.0 mm
23:49 7.7 °C 5.9 °C 1028.3 hPa SE 3.2 km/h 8 km/h 88% 0.0 mm
23:54 7.7 °C 5.7 °C 1028.3 hPa Sur 3.9 km/h 9.3 km/h 87.3% 0.0 mm
23:59 7.6 °C 5.7 °C 1028.3 hPa Sur 5.1 km/h 9.7 km/h 87.7% 0.0 mm
Murcia-Puente Tocinos, Espa?a
Compliments of Weather Underground - 3 mb

La estación de MeteoMurcia.com, publica sus datos en los siguientes proyectos:

Weather Underground PWS IMURCIAP2 Meteoclimatic www.awekas.at

W3Counter
Web Analytics